Terminal Aerodrome Forecast
Issued by NWS Sioux Falls, SD

Home | Current Version | Previous Version | Text Only | Print | Product List | Glossary On
Versions: 1 2 3 4 5 6 7 8 9 10 11 12 13
049
FTUS43 KFSD 271736
TAFHON
TAF
KHON 271736Z 2718/2818 16012G18KT P6SM SCT250
     FM280000 17010KT P6SM BKN120
     FM280400 13006KT P6SM OVC050
     FM280700 07005KT P6SM OVC015
     FM281000 01009KT 4SM BR OVC007
     FM281500 36011KT 6SM BR OVC010=

USA.gov is the U.S. government's official web portal to all federal, state and local government web resources and services.